»·PEaware :: AFL276 KLAS-KASE

AFL276 :: KLAS-KASE

FLIGHT INFORMATION

Flight Status: Arrived
Operator:
Aeroflot
More flights by this operator :: More flights under this callsign
Pilot: Alex S. (20029)
Aircraft: AIRBUS A319
(A319)
More flights by this aircraft type
Origin: KLAS McCarran Intl
United States
Destination: KASE Aspen-Pitkin Co/Sardy
United States
More flights between these airports :: More routes between these airports
Route: +TRALR9 DVC MTJ V361 DBL
File this flight plan on PilotEdge
Remarks: PBN / A1B1C1D1L1O1S1 NAV / RNVD1E2A1 DOF / 180809 REG / VQPCB EET / KZDV0029 RVR / 75 PER / C
Altitude:
(Current/Filed)
37,000ft
Speed:
(Current/Filed)
458kts
Departed: 09-Aug-18 03:02 PM
Arrived: 09-Aug-18 04:24 PM
Distance/Time
Traveled:
436nm/1:22
Distance/Time
To Go:
Arrived

Flight Plot

Page will automatically refresh every two minutes.

Flight plan parsing failed; only flown route is shown


Map Options




Map Legend


Flown Route
Filed Route
Departure Airport
Arrival Airport
Navaid (VOR, NDB)
Fix

Horizontal Profiles

Position Reports

Time Latitude Longitude Heading Altitude Ground
Speed
09-Aug-18 14:24 36.084828 -115.152339 39 2129ft 0kts
09-Aug-18 14:25 36.084828 -115.152339 39 2129ft 0kts
09-Aug-18 14:26 36.084828 -115.152339 39 2129ft 0kts
09-Aug-18 14:27 36.084828 -115.152339 39 2129ft 0kts
09-Aug-18 14:28 36.084828 -115.152339 39 2129ft 0kts
09-Aug-18 14:29 36.084828 -115.152339 39 2129ft 0kts
09-Aug-18 14:30 36.084828 -115.152339 39 2129ft 0kts
09-Aug-18 14:31 36.084828 -115.152339 39 2129ft 0kts
09-Aug-18 14:32 36.084828 -115.152339 39 2129ft 0kts
09-Aug-18 14:33 36.084828 -115.152339 39 2129ft 0kts
09-Aug-18 14:34 36.084828 -115.152339 39 2129ft 0kts
09-Aug-18 14:35 36.084828 -115.152339 39 2129ft 0kts
09-Aug-18 14:36 36.084828 -115.152339 39 2129ft 0kts
09-Aug-18 14:37 36.084828 -115.152339 39 2129ft 0kts
09-Aug-18 14:38 36.084828 -115.152339 39 2129ft 0kts
09-Aug-18 14:39 36.084828 -115.152339 39 2129ft 0kts
09-Aug-18 14:40 36.084828 -115.152339 39 2129ft 0kts
09-Aug-18 14:41 36.084828 -115.152339 39 2129ft 0kts
09-Aug-18 14:42 36.084828 -115.152339 39 2129ft 0kts
09-Aug-18 14:43 36.084708 -115.152463 39 2129ft 2kts
09-Aug-18 14:44 36.084209 -115.152975 39 2129ft 2kts
09-Aug-18 14:45 36.084136 -115.153051 39 2129ft 0kts
09-Aug-18 14:46 36.084136 -115.153051 39 2129ft 0kts
09-Aug-18 14:47 36.084137 -115.153050 39 2129ft 0kts
09-Aug-18 14:48 36.084138 -115.153049 39 2129ft 0kts
09-Aug-18 14:49 36.084139 -115.153048 39 2129ft 0kts
09-Aug-18 14:50 36.084141 -115.153046 39 2129ft 0kts
09-Aug-18 14:51 36.084142 -115.153044 39 2129ft 0kts
09-Aug-18 14:52 36.084144 -115.153043 39 2129ft 0kts
09-Aug-18 14:53 36.083601 -115.154579 246 2129ft 13kts
09-Aug-18 14:54 36.080334 -115.154251 154 2129ft 15kts
09-Aug-18 14:55 36.077948 -115.154933 270 2129ft 13kts
09-Aug-18 14:56 36.077942 -115.158244 269 2129ft 0kts
09-Aug-18 14:57 36.077931 -115.159935 269 2129ft 10kts
09-Aug-18 14:58 36.077659 -115.161156 185 2129ft 0kts
09-Aug-18 14:59 36.077013 -115.161169 180 2129ft 0kts
09-Aug-18 15:00 36.077011 -115.161169 180 2129ft 0kts
09-Aug-18 15:01 36.077009 -115.161169 180 2129ft 0kts
09-Aug-18 15:02 36.077008 -115.161169 180 2129ft 0kts
09-Aug-18 15:03 36.076325 -115.153090 89 2129ft 110kts
09-Aug-18 15:04 36.076736 -115.090574 90 4664ft 214kts
09-Aug-18 15:05 36.076132 -115.000180 91 7797ft 287kts
09-Aug-18 15:06 36.085276 -114.896570 78 11119ft 345kts
09-Aug-18 15:07 36.107048 -114.768244 78 13883ft 397kts
09-Aug-18 15:08 36.130063 -114.631760 78 17077ft 413kts
09-Aug-18 15:09 36.153712 -114.490613 78 19570ft 424kts
09-Aug-18 15:10 36.177881 -114.345521 78 21646ft 436kts
09-Aug-18 15:11 36.200279 -114.196860 81 23288ft 446kts
09-Aug-18 15:12 36.218430 -114.043058 81 24641ft 455kts
09-Aug-18 15:13 36.236997 -113.886319 81 25779ft 464kts
09-Aug-18 15:14 36.255825 -113.726798 81 26794ft 472kts
09-Aug-18 15:15 36.274803 -113.564831 81 27792ft 476kts
09-Aug-18 15:16 36.293584 -113.402987 81 28971ft 475kts
09-Aug-18 15:17 36.315461 -113.240099 74 29410ft 480kts
09-Aug-18 15:18 36.364394 -113.086513 65 29912ft 479kts
09-Aug-18 15:19 36.419741 -112.936470 64 30401ft 478kts
09-Aug-18 15:20 36.475183 -112.786545 64 30860ft 477kts
09-Aug-18 15:21 36.529765 -112.638332 64 32055ft 469kts
09-Aug-18 15:22 36.583844 -112.490758 64 33053ft 468kts
09-Aug-18 15:23 36.637523 -112.343533 64 34012ft 466kts
09-Aug-18 15:24 36.690804 -112.196729 64 34907ft 464kts
09-Aug-18 15:25 36.743682 -112.050304 64 35780ft 462kts
09-Aug-18 15:26 36.795969 -111.904787 63 36608ft 460kts
09-Aug-18 15:27 36.848057 -111.759188 63 37125ft 461kts
09-Aug-18 15:28 36.900420 -111.612099 63 37096ft 464kts
09-Aug-18 15:29 36.952622 -111.464721 63 37080ft 463kts
09-Aug-18 15:30 37.004634 -111.317150 64 37083ft 463kts
09-Aug-18 15:31 37.056446 -111.169420 64 37097ft 463kts
09-Aug-18 15:32 37.108026 -111.021618 64 37115ft 462kts
09-Aug-18 15:33 37.159077 -110.874626 64 37132ft 461kts
09-Aug-18 15:34 37.210073 -110.727043 64 37145ft 460kts
09-Aug-18 15:35 37.260837 -110.579408 64 37161ft 459kts
09-Aug-18 15:36 37.311264 -110.432012 64 37183ft 458kts
09-Aug-18 15:37 37.361365 -110.284851 64 37199ft 458kts
09-Aug-18 15:38 37.410969 -110.138413 64 37221ft 456kts
09-Aug-18 15:39 37.460586 -109.991208 64 37242ft 456kts
09-Aug-18 15:40 37.509816 -109.844412 64 37261ft 455kts
09-Aug-18 15:41 37.558867 -109.697409 65 37276ft 455kts
09-Aug-18 15:42 37.607734 -109.550219 65 37286ft 455kts
09-Aug-18 15:43 37.656408 -109.402860 65 37287ft 455kts
09-Aug-18 15:44 37.704951 -109.255150 65 37276ft 455kts
09-Aug-18 15:45 37.753299 -109.107276 65 37260ft 455kts
09-Aug-18 15:46 37.803058 -108.960602 59 37245ft 452kts
09-Aug-18 15:47 37.878324 -108.834953 48 37237ft 448kts
09-Aug-18 15:48 37.959200 -108.714861 48 37235ft 447kts
09-Aug-18 15:49 38.039920 -108.595498 48 37252ft 443kts
09-Aug-18 15:50 38.120376 -108.476605 48 37255ft 444kts
09-Aug-18 15:51 38.200911 -108.357504 48 37260ft 444kts
09-Aug-18 15:52 38.281494 -108.238089 48 37273ft 444kts
09-Aug-18 15:53 38.361898 -108.118607 48 37262ft 444kts
09-Aug-18 15:54 38.442143 -107.998986 48 37220ft 444kts
09-Aug-18 15:55 38.531431 -107.891386 30 37208ft 444kts
09-Aug-18 15:56 38.642404 -107.821804 26 37194ft 445kts
09-Aug-18 15:57 38.745504 -107.735414 42 36939ft 448kts
09-Aug-18 15:58 38.834313 -107.629763 42 35430ft 412kts
09-Aug-18 15:59 38.916924 -107.531025 43 33212ft 401kts
09-Aug-18 16:00 38.997190 -107.434259 43 31062ft 391kts
09-Aug-18 16:01 39.072246 -107.343477 43 29763ft 343kts
09-Aug-18 16:02 39.123073 -107.282040 43 28129ft 335kts
09-Aug-18 16:03 39.189735 -107.201602 43 25936ft 323kts
09-Aug-18 16:04 39.255272 -107.124792 28 23588ft 316kts
09-Aug-18 16:05 39.340235 -107.128293 350 21654ft 300kts
09-Aug-18 16:06 39.421018 -107.148329 350 19769ft 291kts
09-Aug-18 16:07 39.498451 -107.167136 350 18501ft 265kts
09-Aug-18 16:08 39.569678 -107.171822 31 18473ft 262kts
09-Aug-18 16:09 39.601360 -107.087923 70 18386ft 264kts
09-Aug-18 16:10 39.625208 -106.997485 70 18318ft 266kts
09-Aug-18 16:11 39.621526 -106.909687 140 17737ft 269kts
09-Aug-18 16:12 39.550467 -106.908002 189 16855ft 249kts
09-Aug-18 16:13 39.484130 -106.902140 167 15859ft 241kts
09-Aug-18 16:14 39.420189 -106.900510 219 15083ft 234kts
09-Aug-18 16:15 39.413115 -106.979539 279 15104ft 231kts
09-Aug-18 16:16 39.422137 -107.062068 279 15143ft 232kts
09-Aug-18 16:17 39.440234 -107.138227 316 15166ft 204kts
09-Aug-18 16:18 39.483588 -107.167869 8 15386ft 208kts
09-Aug-18 16:19 39.541379 -107.101125 77 15168ft 386kts
09-Aug-18 16:20 39.532649 -106.994667 99 15078ft 341kts
09-Aug-18 16:21 39.470543 -106.892300 169 15069ft 310kts
09-Aug-18 16:22 39.388721 -106.902270 193 13244ft 315kts
09-Aug-18 16:23 39.317657 -106.909245 166 10530ft 302kts
09-Aug-18 16:24 39.253551 -106.883687 160 8160ft 274kts
09-Aug-18 16:25 39.216194 -106.865528 160 7757ft 31kts
09-Aug-18 16:26 39.215318 -106.864361 341 7757ft 0kts
09-Aug-18 16:27 39.219878 -106.865821 79 7757ft 12kts

Navigation Log

Ident Type
Flight plan parsing failed, navigation log unavailable